Taipei Songshan Airport
RCSS : now visible

Airfield :











YOU CAN JOIN US ON...

 
LOGIN :

Register | Disclaimer

   EN    FR    IT 

 









Legend :    VFR   Marginal VFR   IFR   Intensive IFR   Very Intensive IFR
Visi :
Ceiling :
>= 8 km
>= 3000ft
5 to 8 km
1000 to 3000 ft
1500m to 5 km
500 to 1000 ft
800 to 1500m
200 to 500 ft
< 800m
< 200 ft
Symbols :   Thunderstorms  Fog  Heavy snow  Heavy precipitations  Wind > 20 kt






- Airport Elevation : 18 ft
- IATA code : TSA


RCSS - Taipei Songshan

CURRENT METAR :
  • 131000Z 08005KT 9999 FEW015 SCT040 BKN060 27/24 Q1007 NOSIG RMK A2974

EXPIRED METARs :
  • 130930Z 07006KT 9999 VCSH FEW012 SCT025 BKN040 27/23 Q1006 NOSIG RMK A2973
  • 130900Z 09006KT 070V140 9999 VCSH FEW012 SCT028 BKN045 27/24 Q1006 RETS NOSIG RMK A2971
  • 130851Z 07007KT 9999 VCSH FEW012 SCT025 BKN045 27/23 Q1006 RETS NOSIG RMK A2971
  • 130830Z 07003KT 030V100 7000 VCTS -SHRA FEW006 FEW015CB BKN025 BKN035 27/23 Q1006 NOSIG RMK TS SW-W STNR A2972
  • 130824Z 09006KT 7000 VCTS -SHRA FEW006 FEW015CB BKN025 BKN035 26/23 Q1006 NOSIG RMK TS SW-W STNR A2971
  • 130800Z 10005KT 060V120 9999 -TSRA FEW008 FEW015CB SCT025 BKN035 27/24 Q1006 RESHRA NOSIG RMK TS NE AND SW STNR A2971 RA AMT 0.2MM
  • 130743Z 07011KT 010V090 9999 4500SE -TSRA FEW005 FEW015CB BKN025 BKN035 27/24 Q1006 RESHRA NOSIG RMK TS E-SE MOV E A2971
  • 130738Z 11015KT 080V140 8000 2500SE TSRA FEW005 SCT012CB BKN020 BKN035 26/24 Q1006 WS R10 NOSIG RMK TS OVHD A2972
  • 130723Z VRB09G24KT 9999 2500SE TSRA FEW006 SCT012CB BKN020 BKN040 31/24 Q1006 WS R10 NOSIG RMK TS OVHD A2972
  • 130706Z 31007KT 280V360 9999 -TSRA FEW012 FEW015CB BKN028 BKN040 34/26 Q1005 NOSIG RMK TS E-SE-S MOV E A2969
  • 130652Z 32007KT 290V350 9999 -TSRA FEW012 FEW020CB BKN035 BKN045 34/27 Q1005 TEMPO 5000 RMK 31007KT/R10 TS E AND S STNR A2969
  • 130632Z 30008KT 270V360 9999 VCTS VCSH FEW015 FEW020CB SCT035 BKN045 34/27 Q1005 NOSIG RMK 32008KT/R10 TS S MOV E A2969
  • 130600Z 29009KT 9999 FEW020 FEW025TCU SCT035 BKN045 34/27 Q1005 NOSIG RMK 31008KT/R10 TCU OVHD AND SW A2969
  • 130530Z 29008KT 9999 FEW020 FEW025TCU BKN035 34/27 Q1005 NOSIG RMK 31008KT/R10 TCU OVHD AND SW A2969

TAF TAF RCSS
Valid from the 13 at 06:00 until the 14 at 06:00 UTC


130500Z 1306/1406 29005KT 9999 FEW015 SCT040
TEMPO 1306/1309 12005KT 4000 TSRA SCT006 BKN012 FEW015CB
BECMG 1309/1311 09005KT
TEMPO 1318/1324 31005KT
RCAA FIR / Asia



MET'MAP, your aeronautical weather chart ! - Copyright ORBIFLY December 2007 - Disclaimer

ORBIFLY MET'MAP TEAM :

Programming & Development : Alexandra Zaïnal
Original concept : Baudouin d'Aumeries
Technical & hardware support : Manuel Goepfert
Assistance : Marc-Olivier Méhu




SOURCES & CREDITS :

   NOAA       Earth
Advisory